Time;durP1;ratioP1;P1;durP2;ratioP2;P2;SDS_P1;SDS_P2;PMS_P1;PMS_P2;Temp;Humidity;BMP_temperature;BMP_pressure;BME280_temperature;BME280_humidity;BME280_pressure;Samples;Min_cycle;Max_cycle;Signal;HPM_P1;HPM_P2
2022/07/06 07:30:01;;;;;;;2.38;0.90;;;;;;;17.12;61.42;102534.63;6264053;22;20051;-81
2022/07/06 07:40:24;;;;;;;2.28;0.75;;;;;;;18.02;58.58;102541.91;6300408;22;20014;-81
2022/07/06 11:27:16;;;;;;;2.50;0.50;;;;;;;22.06;40.51;102492.31;6305794;22;20531;-81
2022/07/06 11:29:45;;;;;;;3.05;0.52;;;;;;;22.44;41.04;102493.94;6434574;22;20045;-84
2022/07/06 11:32:14;;;;;;;1.60;0.57;;;;;;;22.51;38.50;102498.53;6434083;22;20029;-77
2022/07/06 12:00:02;;;;;;;;;;;;;;;;;;;;;
2022/07/06 12:03:35;;;;;;;;;;;;;;;;;;;;;
2022/07/06 12:13:39;;;;;;;3.45;0.90;;;;;;;23.46;36.60;102437.94;6062473;23;20461;-80
2022/07/06 12:16:11;;;;;;;1.50;0.55;;;;;;;23.47;36.96;102430.72;6134557;23;20012;-84
2022/07/06 12:18:38;;;;;;;;;;;;;;;23.79;37.75;102420.16;6240690;23;20004;-77
2022/07/06 12:21:04;;;;;;;1.88;0.50;;;;;;;24.02;36.93;102420.44;6276287;22;19910;-79
2022/07/06 12:23:45;;;;;;;2.03;0.55;;;;;;;24.02;35.55;102423.97;6430877;22;20007;-85
2022/07/06 12:26:34;;;;;;;4.85;0.55;;;;;;;23.90;35.01;102421.69;6403423;22;20009;-85
2022/07/06 12:29:05;;;;;;;2.65;1.08;;;;;;;24.10;35.04;102420.44;6312716;22;20397;-85
2022/07/06 12:31:36;;;;;;;2.28;0.70;;;;;;;24.44;36.05;102422.22;6298539;22;19999;-79
2022/07/06 12:34:03;;;;;;;3.45;0.68;;;;;;;24.61;33.61;102418.53;6301529;22;20077;-80
2022/07/06 12:36:28;;;;;;;2.35;0.80;;;;;;;24.79;34.66;102424.59;6299039;22;20583;-85
2022/07/06 12:38:54;;;;;;;2.17;0.70;;;;;;;24.68;33.00;102419.53;6272697;22;20013;-86
2022/07/06 12:41:31;;;;;;;2.75;0.60;;;;;;;25.04;34.77;102408.47;6271462;22;20007;-84
2022/07/06 12:44:08;;;;;;;3.75;0.98;;;;;;;24.91;34.86;102415.19;6271609;22;20086;-86
2022/07/06 12:46:41;;;;;;;3.95;0.80;;;;;;;25.02;35.33;102413.19;6271139;22;20005;-84
2022/07/06 13:05:27;;;;;;;2.15;0.80;;;;;;;24.82;33.76;102413.50;6308990;22;20022;-79
2022/07/06 13:07:55;;;;;;;2.55;0.80;;;;;;;24.59;33.59;102410.63;6372729;22;20066;-84
2022/07/06 13:10:24;;;;;;;4.60;1.10;;;;;;;24.52;35.78;102400.72;6397682;22;20005;-84
2022/07/06 13:12:50;;;;;;;2.03;0.80;;;;;;;24.77;35.64;102407.75;6370310;22;20106;-83
2022/07/06 13:18:36;;;;;;;1.73;0.60;;;;;;;25.14;35.52;102392.94;6397678;22;20012;-85
2022/07/06 13:21:05;;;;;;;3.50;0.88;;;;;;;25.38;34.50;102387.50;6398677;22;20077;-79
2022/07/06 13:23:48;;;;;;;2.80;0.98;;;;;;;25.34;34.56;102391.56;6368294;22;20080;-85
2022/07/06 13:26:22;;;;;;;2.45;0.80;;;;;;;25.21;33.87;102405.56;6370183;22;20001;-86
2022/07/06 13:28:48;;;;;;;2.50;0.90;;;;;;;24.75;33.87;102390.94;6369408;22;20006;-85
2022/07/06 13:31:14;;;;;;;3.63;1.08;;;;;;;25.09;34.46;102390.78;6370367;22;20305;-80
2022/07/06 13:33:51;;;;;;;1.63;0.73;;;;;;;25.39;34.67;102386.50;6370226;22;20037;-80
2022/07/06 13:36:20;;;;;;;3.05;0.75;;;;;;;25.43;33.65;102390.53;6398682;22;20027;-80
2022/07/06 13:38:48;;;;;;;2.92;0.80;;;;;;;25.03;34.74;102385.22;6398705;22;20032;-86
2022/07/06 13:41:14;;;;;;;3.80;0.85;;;;;;;24.91;36.10;102363.16;6399736;22;20107;-85
2022/07/06 13:43:39;;;;;;;2.13;1.05;;;;;;;25.28;34.94;102371.53;6398629;22;20485;-79
2022/07/06 13:46:06;;;;;;;4.10;0.73;;;;;;;25.28;35.03;102378.78;6398611;22;20014;-85
2022/07/06 13:48:46;;;;;;;4.20;1.10;;;;;;;25.02;36.49;102365.53;6398428;22;20002;-85
2022/07/06 13:51:12;;;;;;;5.28;0.93;;;;;;;24.82;35.85;102375.81;6371422;22;20006;-85
2022/07/06 13:53:41;;;;;;;3.67;0.95;;;;;;;24.68;35.09;102361.16;6398162;22;20023;-85
2022/07/06 13:56:07;;;;;;;6.15;1.30;;;;;;;24.50;35.31;102354.28;6399032;22;20028;-80
2022/07/06 13:58:33;;;;;;;6.60;1.05;;;;;;;24.63;36.35;102351.91;6369991;22;19997;-86
2022/07/06 14:01:09;;;;;;;5.13;1.10;;;;;;;24.31;35.50;102361.66;6401581;22;20078;-86
2022/07/06 14:03:36;;;;;;;3.53;1.10;;;;;;;23.87;36.23;102360.19;6371800;22;20010;-86
2022/07/06 14:06:02;;;;;;;2.17;0.90;;;;;;;23.79;37.13;102358.31;6425199;22;20018;-86
2022/07/06 14:08:28;;;;;;;4.38;1.00;;;;;;;23.62;36.61;102364.66;6431308;22;20001;-85
2022/07/06 14:10:54;;;;;;;5.50;1.13;;;;;;;23.81;36.63;102359.00;6404446;22;20008;-86
2022/07/06 14:13:21;;;;;;;3.95;1.00;;;;;;;23.87;38.14;102357.50;6432714;22;20308;-84
2022/07/06 14:15:47;;;;;;;2.60;0.98;;;;;;;24.02;36.52;102351.34;6403962;22;20492;-84
2022/07/06 14:18:14;;;;;;;3.50;0.90;;;;;;;24.06;37.34;102357.22;6403650;22;20001;-84
2022/07/06 14:20:41;;;;;;;4.70;1.13;;;;;;;24.17;37.30;102348.84;6408562;22;20037;-78
2022/07/06 14:23:07;;;;;;;4.10;0.90;;;;;;;24.13;37.71;102350.19;6408152;22;20343;-85
2022/07/06 14:25:33;;;;;;;4.25;1.10;;;;;;;24.27;36.09;102343.28;6435011;22;20010;-85
2022/07/06 14:27:59;;;;;;;1.75;0.82;;;;;;;24.42;37.84;102330.06;6437775;22;20005;-84
2022/07/06 14:30:24;;;;;;;4.70;1.10;;;;;;;24.44;36.32;102331.59;6439714;22;19982;-86
2022/07/06 14:32:51;;;;;;;4.65;1.15;;;;;;;24.32;35.49;102324.81;6437521;22;20438;-79
2022/07/06 14:35:16;;;;;;;3.30;1.08;;;;;;;24.19;37.15;102332.53;6432380;22;20001;-85
2022/07/06 14:37:42;;;;;;;3.97;0.90;;;;;;;24.23;37.77;102323.13;6436744;22;20044;-85
2022/07/06 14:40:08;;;;;;;2.10;0.90;;;;;;;24.16;37.72;102319.41;6412094;22;19993;-85
2022/07/06 14:42:33;;;;;;;2.97;0.80;;;;;;;24.12;38.11;102318.91;6433791;22;19998;-79
2022/07/06 14:44:58;;;;;;;4.40;1.00;;;;;;;24.28;38.45;102323.47;6437113;22;20012;-85
2022/07/06 14:47:24;;;;;;;8.35;1.15;;;;;;;24.47;36.38;102322.31;6434862;22;20005;-79
2022/07/06 14:49:50;;;;;;;3.90;1.20;;;;;;;24.36;37.28;102321.63;6435828;22;20009;-78
2022/07/06 14:52:18;;;;;;;2.72;1.23;;;;;;;24.77;37.05;102316.22;6406201;22;20025;-85
2022/07/06 14:54:44;;;;;;;6.20;1.20;;;;;;;24.75;37.14;102317.41;6434894;22;20001;-84
2022/07/06 14:57:12;;;;;;;3.40;1.10;;;;;;;24.68;37.94;102317.25;6432440;22;20452;-86
2022/07/06 14:59:38;;;;;;;2.47;1.05;;;;;;;24.66;38.53;102312.03;6403973;22;20503;-83
2022/07/06 15:02:03;;;;;;;3.50;0.90;;;;;;;24.64;37.64;102313.22;6405874;22;20002;-85
2022/07/06 15:04:29;;;;;;;3.45;1.00;;;;;;;24.46;37.09;102305.34;6403525;22;20056;-86
2022/07/06 15:06:54;;;;;;;17.80;1.88;;;;;;;24.30;37.14;102303.47;6405617;22;20062;-79
2022/07/06 15:09:20;;;;;;;8.40;1.50;;;;;;;24.35;38.49;102303.81;6430412;22;20009;-79
2022/07/06 15:11:57;;;;;;;3.08;1.17;;;;;;;24.28;37.96;102294.72;6402655;22;20036;-79
2022/07/06 15:14:24;;;;;;;4.60;1.13;;;;;;;24.25;37.17;102296.88;6431861;22;20407;-80
2022/07/06 15:16:49;;;;;;;2.70;0.98;;;;;;;24.19;38.38;102292.19;6402489;22;20020;-78
2022/07/06 15:19:18;;;;;;;4.78;1.00;;;;;;;24.18;38.55;102298.56;6405026;22;20007;-85
2022/07/06 15:21:45;;;;;;;3.35;0.88;;;;;;;24.04;38.98;102298.22;6435865;22;20016;-84
2022/07/06 15:24:11;;;;;;;2.20;0.88;;;;;;;24.09;38.46;102291.50;6433348;22;20363;-85
2022/07/06 15:26:36;;;;;;;7.10;1.30;;;;;;;24.04;39.25;102305.47;6404351;22;20005;-85
2022/07/06 15:29:03;;;;;;;2.85;1.10;;;;;;;23.93;38.43;102292.31;6404373;22;19997;-86
2022/07/06 15:31:28;;;;;;;3.17;1.15;;;;;;;23.80;40.34;102298.19;6403192;22;20342;-79
2022/07/06 15:33:53;;;;;;;3.63;1.10;;;;;;;23.72;40.09;102299.00;6432121;22;20008;-79
2022/07/06 15:36:19;;;;;;;3.70;1.10;;;;;;;23.49;40.93;102297.03;6431814;22;20003;-86
2022/07/06 15:38:50;;;;;;;3.95;1.13;;;;;;;23.38;41.19;102303.56;6432854;22;20002;-86
2022/07/06 15:41:34;;;;;;;3.40;1.08;;;;;;;23.42;41.52;102295.00;6402759;22;20062;-87
2022/07/06 15:43:59;;;;;;;3.13;1.20;;;;;;;23.26;39.84;102296.81;6404341;22;20052;-79
2022/07/06 15:46:25;;;;;;;2.78;1.10;;;;;;;23.30;41.43;102290.09;6432458;22;19997;-85
2022/07/06 15:48:57;;;;;;;4.05;1.38;;;;;;;23.33;40.99;102287.09;6433104;22;20012;-78
2022/07/06 15:51:22;;;;;;;7.65;1.55;;;;;;;23.22;41.67;102280.16;6431485;22;20021;-86
2022/07/06 15:53:48;;;;;;;2.65;1.00;;;;;;;23.24;42.30;102288.06;6404077;22;20009;-78
2022/07/06 15:56:44;;;;;;;2.55;1.10;;;;;;;23.18;41.82;102278.78;6432029;22;19997;-79
2022/07/06 15:59:11;;;;;;;3.70;1.08;;;;;;;22.92;42.02;102284.22;6431415;22;20130;-79
2022/07/06 16:01:36;;;;;;;2.97;1.17;;;;;;;22.92;42.02;102273.47;6433114;22;20046;-79
2022/07/06 16:04:02;;;;;;;3.50;1.27;;;;;;;22.91;42.50;102270.94;6432920;22;20381;-86
2022/07/06 16:06:28;;;;;;;4.70;1.20;;;;;;;22.78;43.25;102269.47;6402455;22;20438;-79
2022/07/06 16:08:53;;;;;;;4.60;1.40;;;;;;;22.58;42.89;102256.44;6433648;22;20023;-79
2022/07/06 16:11:19;;;;;;;3.67;1.40;;;;;;;22.56;43.21;102261.13;6404717;22;20005;-78
2022/07/06 16:13:45;;;;;;;5.65;1.70;;;;;;;22.41;43.22;102261.69;6433643;22;19997;-85
2022/07/06 16:16:14;;;;;;;6.38;1.75;;;;;;;22.50;43.55;102260.75;6435168;22;20005;-85
2022/07/06 16:18:40;;;;;;;4.25;1.70;;;;;;;22.41;44.47;102260.84;6404794;22;20001;-85
2022/07/06 16:21:06;;;;;;;5.32;1.77;;;;;;;22.42;45.11;102263.41;6433568;22;19987;-79
2022/07/06 16:23:31;;;;;;;4.55;1.85;;;;;;;22.46;45.10;102259.41;6432891;22;20029;-85
2022/07/06 16:26:00;;;;;;;3.80;1.80;;;;;;;22.31;46.42;102252.88;6434503;22;19997;-86
2022/07/06 16:28:26;;;;;;;5.05;1.80;;;;;;;22.28;46.20;102247.84;6405091;22;20012;-79
2022/07/06 16:30:51;;;;;;;4.15;2.10;;;;;;;22.16;46.15;102243.72;6434486;22;20076;-80
2022/07/06 16:33:17;;;;;;;6.07;2.08;;;;;;;22.18;46.67;102241.75;6435745;22;20427;-85
2022/07/06 16:35:42;;;;;;;5.45;2.10;;;;;;;22.26;46.42;102236.44;6432765;22;20002;-86
2022/07/06 16:38:08;;;;;;;7.05;1.90;;;;;;;22.20;46.53;102231.69;6432960;22;20001;-79
2022/07/06 16:40:33;;;;;;;9.13;2.10;;;;;;;22.21;47.29;102238.75;6431357;22;20119;-84
2022/07/06 16:42:59;;;;;;;7.28;2.67;;;;;;;22.16;46.50;102224.97;6432531;22;20533;-84
2022/07/06 16:45:24;;;;;;;4.75;2.03;;;;;;;22.09;46.61;102223.91;6431617;22;20001;-84
2022/07/06 16:47:49;;;;;;;6.75;2.58;;;;;;;21.97;47.34;102214.38;6434874;22;20006;-84
2022/07/06 16:50:17;;;;;;;5.68;2.83;;;;;;;21.96;47.37;102221.56;6435359;22;20001;-79
2022/07/06 16:52:43;;;;;;;5.60;2.30;;;;;;;21.97;47.61;102215.22;6432668;22;20002;-84
2022/07/06 16:55:10;;;;;;;5.63;2.50;;;;;;;21.93;47.56;102213.00;6435405;22;20002;-84
2022/07/06 16:57:36;;;;;;;5.25;2.15;;;;;;;21.99;48.10;102217.72;6432552;22;20697;-78
2022/07/06 17:00:02;;;;;;;6.80;2.55;;;;;;;22.01;47.69;102210.38;6431910;22;20029;-77
2022/07/06 17:02:27;;;;;;;6.22;2.50;;;;;;;21.97;48.59;102209.84;6433193;22;20005;-84
2022/07/06 17:04:52;;;;;;;5.43;2.35;;;;;;;22.02;48.53;102204.91;6430919;22;20392;-78
2022/07/06 17:07:18;;;;;;;8.02;2.47;;;;;;;22.02;48.88;102207.56;6430900;22;20081;-79
2022/07/06 17:09:43;;;;;;;6.43;2.35;;;;;;;21.95;49.23;102211.00;6431865;22;20019;-85
2022/07/06 17:12:09;;;;;;;5.10;2.30;;;;;;;21.94;49.58;102209.31;6432936;22;20470;-79
2022/07/06 17:14:34;;;;;;;8.07;2.60;;;;;;;21.84;49.52;102215.59;6429665;22;20338;-79
2022/07/06 17:17:00;;;;;;;5.57;2.38;;;;;;;21.83;49.07;102216.59;6433574;22;20134;-84
2022/07/06 17:19:26;;;;;;;6.85;2.40;;;;;;;21.76;49.60;102212.00;6433724;22;20042;-77
2022/07/06 17:21:51;;;;;;;4.78;2.50;;;;;;;21.59;50.06;102205.63;6433558;22;20076;-77
2022/07/06 17:24:17;;;;;;;7.35;2.80;;;;;;;21.55;49.48;102210.47;6410752;22;20008;-78
2022/07/06 17:26:43;;;;;;;6.95;2.20;;;;;;;21.54;50.17;102202.56;6411749;22;20088;-81
2022/07/06 17:29:08;;;;;;;7.72;2.47;;;;;;;21.47;50.39;102201.50;6452073;22;20002;-78
2022/07/06 17:31:35;;;;;;;6.47;2.28;;;;;;;21.45;50.98;102190.09;6441060;22;19997;-78
2022/07/06 17:34:02;;;;;;;10.48;2.60;;;;;;;21.46;50.76;102189.09;6413051;22;20009;-78
2022/07/06 17:36:27;;;;;;;8.02;2.30;;;;;;;21.43;51.42;102192.94;6441538;22;20004;-78
2022/07/06 17:38:54;;;;;;;4.88;2.30;;;;;;;21.42;51.60;102193.09;6441375;22;20397;-78
2022/07/06 17:41:20;;;;;;;3.85;2.15;;;;;;;21.38;50.89;102192.56;6452990;22;20055;-82
2022/07/06 17:43:46;;;;;;;3.95;2.22;;;;;;;21.34;50.93;102183.13;6423510;22;20006;-84
2022/07/06 17:46:11;;;;;;;5.68;2.30;;;;;;;21.23;51.03;102186.03;6451098;22;20007;-81
2022/07/06 17:48:36;;;;;;;6.90;2.15;;;;;;;21.27;51.66;102190.94;6449909;22;20070;-82
2022/07/06 17:51:02;;;;;;;6.13;2.20;;;;;;;21.29;52.00;102190.78;6453467;22;20000;-81
2022/07/06 17:53:27;;;;;;;6.80;2.50;;;;;;;21.22;50.90;102182.47;6416472;22;20004;-81
2022/07/06 17:55:52;;;;;;;5.50;1.98;;;;;;;21.27;51.29;102190.09;6424687;22;20029;-82
2022/07/06 17:58:18;;;;;;;6.35;2.55;;;;;;;21.17;51.37;102183.91;6452246;22;20075;-83
2022/07/06 18:00:44;;;;;;;6.55;2.42;;;;;;;21.17;51.66;102179.38;6448060;22;20006;-79
2022/07/06 18:03:09;;;;;;;12.63;2.75;;;;;;;21.12;52.04;102187.03;6442901;22;20024;-79
2022/07/06 18:05:36;;;;;;;8.73;2.72;;;;;;;21.06;51.92;102174.25;6439927;22;20101;-79
2022/07/06 18:08:02;;;;;;;6.43;2.60;;;;;;;21.05;52.75;102175.25;6436929;22;20334;-79
2022/07/06 18:10:27;;;;;;;7.88;3.00;;;;;;;21.00;52.05;102180.19;6433987;22;20009;-79
2022/07/06 18:12:54;;;;;;;7.95;2.80;;;;;;;20.93;52.29;102171.94;6432831;22;20028;-85
2022/07/06 18:15:20;;;;;;;8.23;2.75;;;;;;;20.93;52.83;102176.44;6436847;22;20384;-84
2022/07/06 18:17:46;;;;;;;7.72;2.45;;;;;;;20.85;52.89;102176.34;6436281;22;20458;-84
2022/07/06 18:20:11;;;;;;;8.05;3.00;;;;;;;20.88;52.43;102173.38;6436109;22;20011;-85
2022/07/06 18:22:37;;;;;;;7.80;2.80;;;;;;;20.81;52.23;102170.44;6434772;22;19998;-85
2022/07/06 18:25:02;;;;;;;7.15;2.97;;;;;;;20.74;52.48;102165.81;6439612;22;20002;-83
2022/07/06 18:27:28;;;;;;;4.53;2.53;;;;;;;20.68;52.90;102172.59;6443921;22;20008;-82
2022/07/06 18:29:53;;;;;;;6.28;2.35;;;;;;;20.69;52.73;102163.59;6442643;22;20362;-78
2022/07/06 18:32:18;;;;;;;7.93;2.63;;;;;;;20.73;52.87;102175.66;6434284;22;19997;-78
2022/07/06 18:34:44;;;;;;;6.45;2.17;;;;;;;20.76;52.88;102177.19;6433666;22;20054;-78
2022/07/06 18:37:09;;;;;;;7.63;2.85;;;;;;;20.68;52.97;102182.44;6433927;22;20161;-78
2022/07/06 18:39:34;;;;;;;9.35;2.50;;;;;;;20.73;53.04;102186.38;6404132;22;20044;-83
2022/07/06 18:42:01;;;;;;;8.40;2.65;;;;;;;20.67;53.00;102183.44;6434878;22;20045;-84
2022/07/06 18:44:26;;;;;;;10.27;2.92;;;;;;;20.54;53.68;102187.28;6435214;22;20005;-84
2022/07/06 18:46:52;;;;;;;7.63;2.72;;;;;;;20.54;53.60;102187.28;6434401;22;20009;-77
2022/07/06 18:49:17;;;;;;;6.53;2.42;;;;;;;20.36;53.04;102183.63;6404084;22;20084;-84
2022/07/06 18:51:42;;;;;;;4.15;2.20;;;;;;;20.28;52.54;102178.19;6433708;22;20312;-77
2022/07/06 18:54:08;;;;;;;5.75;2.40;;;;;;;20.29;52.97;102169.16;6404713;22;20009;-77
2022/07/06 18:56:33;;;;;;;10.13;2.80;;;;;;;20.30;52.87;102177.03;6429748;22;19998;-77
2022/07/06 18:58:59;;;;;;;5.40;2.50;;;;;;;20.26;52.73;102177.47;6432787;22;20077;-83
2022/07/06 19:01:24;;;;;;;7.22;3.00;;;;;;;20.28;53.06;102171.00;6432420;22;20054;-83
2022/07/06 19:03:50;;;;;;;5.18;3.60;;;;;;;20.26;53.20;102156.94;6434886;22;20026;-86
2022/07/06 19:06:19;;;;;;;10.43;5.03;;;;;;;20.25;51.94;102154.41;6434002;22;20343;-78
2022/07/06 19:08:47;;;;;;;8.93;5.07;;;;;;;20.21;52.57;102158.38;6405564;22;20013;-83
2022/07/06 19:11:14;;;;;;;9.48;5.57;;;;;;;20.22;52.66;102149.34;6406442;22;20005;-84
2022/07/06 19:13:40;;;;;;;7.10;4.00;;;;;;;20.13;52.11;102143.06;6431635;22;20384;-77
2022/07/06 19:16:07;;;;;;;10.18;3.70;;;;;;;20.20;52.07;102143.31;6401848;22;20009;-84
2022/07/06 19:18:34;;;;;;;6.88;2.42;;;;;;;20.14;51.44;102141.22;6431708;22;20007;-77
2022/07/06 19:21:00;;;;;;;7.93;2.10;;;;;;;20.03;51.50;102142.22;6402471;22;20092;-83
2022/07/06 19:23:25;;;;;;;5.05;1.60;;;;;;;20.01;51.45;102150.41;6431019;22;20457;-84
2022/07/06 19:25:51;;;;;;;9.40;1.73;;;;;;;19.92;52.36;102148.56;6434461;22;20023;-85
2022/07/06 19:28:16;;;;;;;6.20;1.80;;;;;;;19.90;52.35;102155.88;6435530;22;20042;-84
2022/07/06 19:30:42;;;;;;;4.13;1.58;;;;;;;19.85;53.00;102146.59;6404483;22;20002;-83
2022/07/06 19:33:10;;;;;;;4.32;1.38;;;;;;;19.85;53.14;102152.78;6434415;22;20001;-84
2022/07/06 19:35:36;;;;;;;4.70;1.40;;;;;;;19.82;53.70;102158.41;6406512;22;20447;-77
2022/07/06 19:38:02;;;;;;;2.38;1.25;;;;;;;19.79;54.09;102156.03;6407676;22;19989;-83
2022/07/06 19:40:27;;;;;;;3.05;1.00;;;;;;;19.75;54.43;102167.97;6440282;22;20033;-84
2022/07/06 19:42:54;;;;;;;1.65;0.90;;;;;;;19.69;54.89;102164.06;6438148;22;20054;-78
2022/07/06 19:45:20;;;;;;;1.63;0.70;;;;;;;19.69;55.44;102168.56;6407795;22;20430;-84
2022/07/06 19:47:48;;;;;;;3.00;0.80;;;;;;;19.59;56.22;102159.66;6434705;22;20073;-78
2022/07/06 19:50:14;;;;;;;2.35;0.70;;;;;;;19.58;56.81;102156.16;6435778;22;20005;-85
2022/07/06 19:52:39;;;;;;;4.88;0.77;;;;;;;19.50;57.50;102157.81;6437247;22;20084;-84
2022/07/06 19:55:05;;;;;;;3.92;0.80;;;;;;;19.43;57.85;102160.19;6405133;22;20377;-78
2022/07/06 19:57:37;;;;;;;1.48;0.60;;;;;;;19.43;58.20;102165.53;6434574;22;20315;-78
2022/07/06 20:00:09;;;;;;;1.23;0.70;;;;;;;19.37;58.46;102150.91;6260622;22;27848;-83
2022/07/06 20:02:50;;;;;;;1.88;0.73;;;;;;;19.40;58.87;102157.81;5069958;27;20368;-83
2022/07/06 20:20:02;;;;;;;3.60;0.80;;;;;;;19.33;61.29;102149.50;5109372;27;20149;-76
2022/07/06 20:22:37;;;;;;;0.77;0.68;;;;;;;19.39;60.96;102150.78;4958224;28;20057;-82
2022/07/06 20:25:06;;;;;;;2.65;0.80;;;;;;;19.31;61.53;102159.50;5051757;28;20049;-81
2022/07/06 20:27:32;;;;;;;2.95;0.80;;;;;;;19.25;61.90;102149.38;5053772;28;20108;-82
2022/07/06 20:30:04;;;;;;;4.35;0.80;;;;;;;19.26;61.91;102145.72;5054991;28;20376;-76
2022/07/06 20:32:36;;;;;;;3.33;0.90;;;;;;;19.15;62.52;102148.47;5055766;28;20498;-82
2022/07/06 20:38:45;;;;;;;2.08;0.90;;;;;;;19.13;62.16;102152.28;4949569;28;20045;-75
2022/07/06 20:41:11;;;;;;;2.05;0.90;;;;;;;19.02;63.36;102142.56;5048639;28;20408;-81
2022/07/06 20:43:37;;;;;;;4.55;1.40;;;;;;;18.94;64.32;102140.59;5062736;28;20400;-82
2022/07/06 20:46:03;;;;;;;2.15;1.20;;;;;;;18.89;64.59;102149.97;5069252;28;20025;-83
2022/07/06 20:50:28;;;;;;;3.15;1.20;;;;;;;19.20;63.97;102156.91;4992837;28;20429;-72
2022/07/06 20:59:21;;;;;;;3.97;0.98;;;;;;;20.29;57.98;102161.16;5088058;27;20175;-61
2022/07/06 21:01:46;;;;;;;1.77;0.80;;;;;;;20.62;56.80;102152.63;5070890;28;20091;-61
2022/07/06 21:04:12;;;;;;;1.83;1.02;;;;;;;20.89;55.96;102153.66;5068852;28;20078;-57
2022/07/06 21:06:37;;;;;;;3.15;0.82;;;;;;;21.08;55.08;102150.84;5069487;28;20099;-61
2022/07/06 21:09:03;;;;;;;3.40;0.80;;;;;;;21.24;54.68;102152.91;5067457;28;20020;-57
2022/07/06 21:11:29;;;;;;;1.85;1.00;;;;;;;21.38;54.54;102154.22;5069562;28;20111;-57
2022/07/06 21:13:54;;;;;;;1.85;0.90;;;;;;;21.48;53.87;102149.63;5067889;28;20060;-61
2022/07/06 21:16:20;;;;;;;2.22;0.98;;;;;;;21.55;53.79;102140.81;5065052;28;20032;-57
2022/07/06 21:18:45;;;;;;;2.15;0.95;;;;;;;21.63;53.58;102141.91;5069436;28;20029;-62
2022/07/06 21:21:11;;;;;;;1.10;0.70;;;;;;;21.67;53.15;102136.09;5066111;28;20039;-57
2022/07/06 21:23:38;;;;;;;1.83;0.75;;;;;;;21.73;53.06;102135.47;5067393;28;20112;-61
2022/07/06 21:26:04;;;;;;;2.35;0.88;;;;;;;21.77;52.56;102136.84;5070421;28;20004;-57
2022/07/06 21:28:30;;;;;;;2.13;0.90;;;;;;;21.79;52.71;102132.16;5069852;28;20017;-61
2022/07/06 21:30:55;;;;;;;0.98;0.60;;;;;;;21.82;52.63;102136.38;5068121;28;20017;-61
2022/07/06 21:33:22;;;;;;;1.33;0.80;;;;;;;21.83;52.66;102133.53;5069098;28;20024;-57
2022/07/06 21:35:47;;;;;;;0.77;0.70;;;;;;;21.84;52.31;102129.84;5067668;28;20027;-58
2022/07/06 21:38:13;;;;;;;2.30;0.90;;;;;;;21.85;52.16;102134.22;5069161;28;20465;-61
2022/07/06 21:40:39;;;;;;;1.83;0.80;;;;;;;21.86;52.52;102125.19;5068034;28;20031;-62
2022/07/06 21:43:04;;;;;;;2.17;0.90;;;;;;;21.86;52.27;102119.81;5067496;28;20067;-57
2022/07/06 21:45:29;;;;;;;1.25;0.68;;;;;;;21.87;52.05;102124.19;5067943;28;20024;-57
2022/07/06 21:47:54;;;;;;;1.25;0.70;;;;;;;21.87;52.21;102113.47;5067472;28;20388;-61
2022/07/06 21:50:20;;;;;;;2.08;0.77;;;;;;;21.86;52.17;102106.41;5067192;28;20029;-58
2022/07/06 21:52:45;;;;;;;2.92;0.80;;;;;;;21.87;52.09;102110.78;5068292;28;20024;-61
2022/07/06 21:55:11;;;;;;;1.70;0.88;;;;;;;21.86;52.25;102106.41;5067305;28;20086;-61
2022/07/06 21:57:36;;;;;;;2.15;1.02;;;;;;;21.86;52.24;102111.78;5071271;28;20074;-58
2022/07/06 22:00:04;;;;;;;1.65;0.95;;;;;;;21.85;52.44;102110.09;5087315;28;20030;-57
2022/07/06 22:02:30;;;;;;;2.35;0.60;;;;;;;21.85;52.07;102109.25;5086605;28;20022;-57
2022/07/06 22:04:55;;;;;;;1.25;0.60;;;;;;;21.84;52.54;102108.41;5087809;28;20028;-57
2022/07/06 22:07:20;;;;;;;1.60;0.77;;;;;;;21.83;52.48;102111.25;5088742;28;20099;-58
2022/07/06 22:09:46;;;;;;;1.42;0.75;;;;;;;21.83;52.46;102119.28;5080326;28;20089;-57
2022/07/06 22:12:11;;;;;;;1.67;0.75;;;;;;;21.82;52.67;102109.56;5074514;28;20033;-58
2022/07/06 22:14:36;;;;;;;0.90;0.60;;;;;;;21.82;52.52;102110.41;5073496;28;20065;-58
2022/07/06 22:17:02;;;;;;;1.33;0.70;;;;;;;21.81;52.66;102111.41;5074766;28;20480;-61
2022/07/06 22:19:27;;;;;;;2.55;0.90;;;;;;;21.79;52.54;102110.72;5083130;28;20069;-58
2022/07/06 22:21:53;;;;;;;1.45;0.77;;;;;;;21.79;52.59;102110.72;5074845;28;20059;-58
2022/07/06 22:24:18;;;;;;;1.02;0.70;;;;;;;21.78;52.62;102109.03;5075411;28;20036;-57
2022/07/06 22:26:44;;;;;;;1.20;0.63;;;;;;;21.78;52.46;102108.22;5083196;28;20019;-61
2022/07/06 22:29:10;;;;;;;1.30;0.80;;;;;;;21.77;52.68;102095.81;5083578;28;20043;-58
2022/07/06 22:31:35;;;;;;;1.80;0.80;;;;;;;21.76;52.51;102094.97;5072335;28;20422;-58
2022/07/06 22:34:01;;;;;;;1.55;0.75;;;;;;;21.75;52.96;102093.28;5072075;28;20020;-57
2022/07/06 22:36:31;;;;;;;0.70;0.60;;;;;;;21.76;52.80;102094.13;5072500;28;20040;-62
2022/07/06 22:38:57;;;;;;;1.38;0.70;;;;;;;21.74;52.85;102096.13;5054276;28;20021;-62
2022/07/06 22:41:23;;;;;;;1.10;0.80;;;;;;;21.74;52.75;102085.41;5071152;28;20043;-61
2022/07/06 22:43:49;;;;;;;1.73;0.60;;;;;;;21.72;52.78;102088.25;5072825;28;20073;-58
2022/07/06 22:46:18;;;;;;;1.17;0.77;;;;;;;21.73;52.75;102083.72;5072062;28;20111;-57
2022/07/06 22:48:44;;;;;;;0.90;0.70;;;;;;;21.70;52.84;102079.53;5071584;28;20020;-62
2022/07/06 22:51:10;;;;;;;0.70;0.60;;;;;;;21.72;52.83;102082.03;5063425;28;20029;-61
2022/07/06 22:53:35;;;;;;;1.67;0.70;;;;;;;21.71;53.00;102070.47;5051520;28;20028;-61
2022/07/06 22:56:01;;;;;;;1.52;0.70;;;;;;;21.71;52.86;102070.47;5051403;28;20104;-58
2022/07/06 22:58:26;;;;;;;1.52;0.80;;;;;;;21.70;52.86;102067.97;5068651;28;20049;-57
2022/07/06 23:00:52;;;;;;;1.80;0.93;;;;;;;21.68;53.17;102070.78;5071121;28;20025;-61
2022/07/06 23:03:19;;;;;;;1.20;0.70;;;;;;;21.68;52.81;102076.16;5071325;28;20024;-58
2022/07/06 23:05:45;;;;;;;1.75;1.00;;;;;;;21.67;53.11;102069.13;5071656;28;20050;-58
2022/07/06 23:08:10;;;;;;;1.15;0.70;;;;;;;21.68;53.29;102064.59;5070400;28;20024;-58
2022/07/06 23:10:36;;;;;;;1.30;0.80;;;;;;;21.68;53.36;102057.41;5052889;28;20035;-57
2022/07/06 23:13:01;;;;;;;1.05;0.57;;;;;;;21.67;53.26;102052.19;5068280;28;20144;-58
2022/07/06 23:15:26;;;;;;;1.45;0.80;;;;;;;21.67;52.93;102054.88;5050858;28;20020;-58
2022/07/06 23:17:53;;;;;;;0.80;0.80;;;;;;;21.66;53.12;102050.53;5057431;28;20027;-58
2022/07/06 23:20:19;;;;;;;0.70;0.70;;;;;;;21.66;53.15;102050.53;5091844;28;20407;-58
2022/07/06 23:22:45;;;;;;;5.38;0.77;;;;;;;21.66;53.41;102045.16;5091204;28;20028;-58
2022/07/06 23:25:10;;;;;;;0.75;0.68;;;;;;;21.66;53.24;102051.38;5070446;28;20031;-62
2022/07/06 23:27:36;;;;;;;1.30;0.65;;;;;;;21.65;53.50;102044.31;5086838;28;20016;-58
2022/07/06 23:30:01;;;;;;;1.40;0.85;;;;;;;21.65;53.28;102038.97;5081547;28;20465;-58
2022/07/06 23:32:27;;;;;;;1.27;0.80;;;;;;;21.65;53.54;102036.28;5071021;28;20009;-57
2022/07/06 23:34:53;;;;;;;1.15;0.80;;;;;;;21.65;53.47;102044.31;5072104;28;20074;-57
2022/07/06 23:37:19;;;;;;;0.80;0.70;;;;;;;21.64;53.38;102042.63;5070438;28;20032;-62
2022/07/06 23:39:44;;;;;;;1.25;0.80;;;;;;;21.65;53.53;102040.81;5072869;28;20036;-58
2022/07/06 23:42:10;;;;;;;1.60;0.73;;;;;;;21.64;53.36;102034.59;5071428;28;20464;-57
2022/07/06 23:44:35;;;;;;;1.27;0.80;;;;;;;21.64;53.63;102026.56;5085521;28;20521;-57
2022/07/06 23:47:00;;;;;;;0.80;0.75;;;;;;;21.64;53.35;102020.38;5072409;28;20075;-58
2022/07/06 23:49:26;;;;;;;1.58;0.80;;;;;;;21.63;53.72;102013.34;5070530;28;20028;-58
2022/07/06 23:51:52;;;;;;;1.08;0.80;;;;;;;21.63;53.30;102005.28;5071141;28;20031;-57
2022/07/06 23:54:17;;;;;;;1.30;0.73;;;;;;;21.63;53.35;101998.09;5070248;28;20021;-58
2022/07/06 23:56:43;;;;;;;1.10;0.90;;;;;;;21.62;53.52;101993.75;5070815;28;20025;-57
2022/07/06 23:59:08;;;;;;;1.63;0.70;;;;;;;21.62;53.61;101985.72;5070018;28;20076;-60
